createdAt,value
2023-02-27T00:00:35.881Z,36.90
2023-02-27T00:03:03.920Z,37.50
2023-02-27T00:05:33.504Z,38.00
2023-02-27T00:08:01.642Z,37.90
2023-02-27T00:10:29.788Z,38.30
2023-02-27T00:12:57.939Z,38.40
2023-02-27T00:15:26.445Z,37.80
2023-02-27T00:17:54.492Z,38.10
2023-02-27T00:20:26.398Z,37.90
2023-02-27T00:22:59.046Z,38.60
2023-02-27T00:25:27.135Z,38.90
2023-02-27T00:27:56.991Z,38.70
2023-02-27T00:30:26.646Z,38.70
2023-02-27T00:32:55.096Z,38.70
2023-02-27T00:35:25.138Z,38.60
2023-02-27T00:37:53.540Z,39.20
2023-02-27T00:40:25.504Z,39.20
2023-02-27T00:42:53.929Z,39.20
2023-02-27T00:45:22.419Z,40.10
2023-02-27T00:47:50.782Z,39.70
2023-02-27T00:50:19.157Z,41.00
2023-02-27T00:52:47.588Z,41.70
2023-02-27T00:55:15.778Z,41.00
2023-02-27T00:57:45.663Z,39.70
2023-02-27T01:00:15.231Z,40.80
2023-02-27T01:02:43.409Z,41.30
2023-02-27T01:05:12.125Z,42.00
2023-02-27T01:07:40.593Z,42.80
2023-02-27T01:10:11.630Z,42.40
2023-02-27T01:12:40.465Z,42.20
2023-02-27T01:15:12.801Z,42.30
2023-02-27T01:17:41.112Z,42.70
2023-02-27T01:20:13.496Z,43.10
2023-02-27T01:22:42.365Z,43.40
2023-02-27T01:25:11.524Z,43.20
2023-02-27T01:27:39.815Z,43.60
2023-02-27T01:30:12.696Z,43.70
2023-02-27T01:32:41.112Z,44.60
2023-02-27T01:35:10.103Z,45.00
2023-02-27T01:37:38.582Z,45.50
2023-02-27T01:40:09.219Z,46.70
2023-02-27T01:42:37.517Z,46.10
2023-02-27T01:45:30.271Z,45.70
2023-02-27T01:48:07.604Z,45.40
2023-02-27T01:50:38.647Z,45.30
2023-02-27T01:53:08.602Z,45.10
2023-02-27T01:55:40.551Z,45.10
2023-02-27T01:58:13.653Z,45.80
2023-02-27T02:00:44.335Z,45.90
2023-02-27T02:03:31.225Z,45.00
2023-02-27T02:06:03.625Z,44.90
2023-02-27T02:08:37.754Z,45.30
2023-02-27T02:11:09.163Z,45.30
2023-02-27T02:13:40.279Z,46.50
2023-02-27T02:16:34.095Z,46.60
2023-02-27T02:19:33.895Z,45.90
2023-02-27T02:22:58.352Z,45.90
2023-02-27T02:26:14.901Z,48.30
2023-02-27T02:29:24.277Z,49.20
2023-02-27T02:32:32.197Z,49.70
2023-02-27T02:36:00.372Z,49.50
2023-02-27T02:39:17.399Z,48.80
2023-02-27T02:42:01.609Z,48.00
2023-02-27T02:44:45.209Z,49.90
2023-02-27T02:47:24.958Z,49.10
2023-02-27T02:50:01.910Z,47.70
2023-02-27T02:52:42.562Z,47.20
2023-02-27T02:55:22.518Z,47.50
2023-02-27T02:58:01.223Z,48.20
2023-02-27T03:00:38.396Z,48.90
2023-02-27T03:03:12.530Z,49.40
2023-02-27T03:05:48.791Z,49.60
2023-02-27T03:08:25.837Z,49.10
2023-02-27T03:10:58.710Z,49.00
2023-02-27T03:13:34.765Z,48.90
2023-02-27T03:16:10.375Z,48.70
2023-02-27T03:18:48.774Z,48.90
2023-02-27T03:21:26.315Z,48.80
2023-02-27T03:24:00.380Z,49.10
2023-02-27T03:26:37.139Z,49.00
2023-02-27T03:29:10.443Z,47.90
2023-02-27T03:31:45.941Z,48.20
2023-02-27T03:34:22.127Z,47.90
2023-02-27T03:37:05.144Z,48.10
2023-02-27T03:39:45.441Z,48.10
2023-02-27T03:42:30.366Z,48.10
2023-02-27T03:45:07.384Z,48.50
2023-02-27T03:47:36.416Z,49.00
2023-02-27T03:50:05.482Z,50.20
2023-02-27T03:52:34.398Z,51.30
2023-02-27T03:55:11.558Z,51.60
2023-02-27T03:57:42.949Z,51.00
2023-02-27T04:00:19.599Z,51.30
2023-02-27T04:02:51.655Z,51.60
2023-02-27T04:05:20.439Z,53.00
2023-02-27T04:08:04.433Z,54.50
2023-02-27T04:11:00.519Z,56.20
2023-02-27T04:14:05.515Z,58.80
2023-02-27T04:17:06.707Z,60.10
2023-02-27T04:19:57.217Z,60.30
2023-02-27T04:22:37.379Z,61.20
2023-02-27T04:25:32.961Z,62.90
2023-02-27T04:28:13.253Z,62.00
2023-02-27T04:30:59.126Z,61.40
2023-02-27T04:33:42.973Z,63.10
2023-02-27T04:36:20.082Z,64.00
2023-02-27T04:38:52.582Z,64.20
2023-02-27T04:41:28.362Z,64.60
2023-02-27T04:44:00.340Z,67.20
2023-02-27T04:46:33.626Z,69.00
2023-02-27T04:49:08.890Z,68.70
2023-02-27T04:51:48.357Z,67.60
2023-02-27T04:54:24.067Z,67.80
2023-02-27T04:56:57.108Z,66.70
2023-02-27T04:59:30.901Z,67.40
2023-02-27T05:02:06.084Z,68.20
2023-02-27T05:04:40.255Z,67.30
2023-02-27T05:07:14.533Z,66.60
2023-02-27T05:09:48.180Z,64.90
2023-02-27T05:12:24.232Z,64.30
2023-02-27T05:15:00.472Z,64.40
2023-02-27T05:17:36.248Z,63.60
2023-02-27T05:20:07.153Z,64.90
2023-02-27T05:22:47.192Z,65.50
2023-02-27T05:25:25.411Z,66.70
2023-02-27T05:28:00.789Z,67.20
2023-02-27T05:30:37.383Z,69.90
2023-02-27T05:33:14.952Z,72.20
2023-02-27T05:35:52.768Z,71.90
2023-02-27T05:38:30.418Z,71.70
2023-02-27T05:41:04.846Z,72.60
2023-02-27T05:43:39.906Z,71.80
2023-02-27T05:46:17.253Z,71.10
2023-02-27T05:48:54.854Z,71.90
2023-02-27T05:51:30.857Z,72.80
2023-02-27T05:54:05.878Z,72.70
2023-02-27T05:56:38.151Z,75.40
2023-02-27T05:59:17.260Z,75.70
2023-02-27T06:01:46.468Z,74.40
2023-02-27T06:04:16.469Z,73.80
2023-02-27T06:06:46.258Z,74.70
2023-02-27T06:09:16.545Z,73.30
2023-02-27T06:11:44.912Z,72.20
2023-02-27T06:14:13.217Z,70.90
2023-02-27T06:16:41.558Z,69.10
2023-02-27T06:19:09.839Z,68.20
2023-02-27T06:21:39.790Z,67.90
2023-02-27T06:24:08.348Z,68.00
2023-02-27T06:26:37.201Z,66.60
2023-02-27T06:29:05.789Z,66.20
2023-02-27T06:31:33.988Z,67.40
2023-02-27T06:34:02.155Z,67.80
2023-02-27T06:36:30.593Z,66.00
2023-02-27T06:39:00.550Z,65.50
2023-02-27T06:41:29.089Z,64.60
2023-02-27T06:43:58.091Z,63.70
2023-02-27T06:46:26.901Z,63.30
2023-02-27T06:48:55.456Z,62.40
2023-02-27T06:51:23.730Z,63.10
2023-02-27T06:53:52.401Z,61.40
2023-02-27T06:56:22.122Z,60.20
2023-02-27T06:58:50.302Z,60.40
2023-02-27T07:01:18.592Z,60.70
2023-02-27T07:03:46.922Z,58.30
2023-02-27T07:06:15.242Z,57.70
2023-02-27T07:09:00.931Z,55.90
2023-02-27T07:11:33.150Z,56.50
2023-02-27T07:14:01.204Z,54.30
2023-02-27T07:16:29.622Z,52.30
2023-02-27T07:18:58.901Z,50.90
2023-02-27T07:21:27.516Z,49.50
2023-02-27T07:23:55.696Z,49.20
2023-02-27T07:26:24.151Z,48.30
2023-02-27T07:28:53.910Z,46.60
2023-02-27T07:31:22.482Z,46.00
2023-02-27T07:33:50.782Z,44.40
2023-02-27T07:36:18.999Z,43.90
2023-02-27T07:38:47.406Z,43.00
2023-02-27T07:41:29.602Z,39.90
2023-02-27T07:43:59.832Z,39.00
2023-02-27T07:46:28.603Z,36.90
2023-02-27T07:48:57.075Z,36.10
2023-02-27T07:51:25.441Z,36.20
2023-02-27T07:53:53.766Z,35.40
2023-02-27T07:56:21.975Z,35.20
2023-02-27T07:58:50.246Z,34.30
2023-02-27T08:01:20.004Z,33.10
2023-02-27T08:03:48.271Z,32.80
2023-02-27T08:06:16.442Z,32.10
2023-02-27T08:08:45.714Z,32.10
2023-02-27T08:11:14.126Z,28.40
2023-02-27T08:13:59.483Z,26.00
2023-02-27T08:16:31.015Z,24.60
2023-02-27T08:18:59.761Z,22.90
2023-02-27T08:21:28.696Z,22.10
2023-02-27T08:23:57.097Z,21.50
2023-02-27T08:26:26.016Z,21.10
2023-02-27T08:28:54.456Z,20.00
2023-02-27T08:31:22.580Z,19.60
2023-02-27T08:34:01.052Z,20.20
2023-02-27T08:36:37.844Z,19.90
2023-02-27T08:39:07.494Z,19.30
2023-02-27T08:41:36.598Z,18.80
2023-02-27T08:44:05.625Z,18.20
2023-02-27T08:46:33.850Z,18.30
2023-02-27T08:49:03.345Z,18.30
2023-02-27T08:51:31.575Z,18.50
2023-02-27T08:53:59.877Z,17.90
2023-02-27T08:56:29.317Z,18.10
2023-02-27T08:58:58.762Z,16.30
2023-02-27T09:01:31.590Z,17.00
2023-02-27T09:03:59.734Z,17.30
2023-02-27T09:06:29.678Z,16.80
2023-02-27T09:08:58.642Z,15.40
2023-02-27T09:11:28.445Z,15.80
2023-02-27T09:13:57.449Z,15.90
2023-02-27T09:16:26.177Z,16.30
2023-02-27T09:18:54.601Z,15.90
2023-02-27T09:21:23.614Z,15.60
2023-02-27T09:23:53.773Z,15.90
2023-02-27T09:26:35.695Z,14.30
2023-02-27T09:29:09.079Z,14.50
2023-02-27T09:31:37.192Z,14.20
2023-02-27T09:34:05.782Z,14.60
2023-02-27T09:36:34.052Z,14.40
2023-02-27T09:39:03.704Z,13.90
2023-02-27T09:41:59.142Z,13.50
2023-02-27T09:44:46.053Z,14.00
2023-02-27T09:47:19.317Z,12.80
2023-02-27T09:50:01.879Z,12.60
2023-02-27T09:52:33.933Z,11.90
2023-02-27T09:55:05.542Z,11.90
2023-02-27T09:57:47.413Z,12.40
2023-02-27T10:00:40.882Z,13.20
2023-02-27T10:03:31.761Z,11.80
2023-02-27T10:06:19.353Z,12.30
2023-02-27T10:09:01.807Z,12.50
2023-02-27T10:11:45.112Z,11.80
2023-02-27T10:14:29.586Z,11.80
2023-02-27T10:17:00.364Z,11.80
2023-02-27T10:19:35.002Z,11.50
2023-02-27T10:22:13.310Z,12.10
2023-02-27T10:24:50.323Z,12.10
2023-02-27T10:27:22.768Z,12.30
2023-02-27T10:29:52.395Z,11.00
2023-02-27T10:32:25.906Z,10.80
2023-02-27T10:35:06.440Z,10.90
2023-02-27T10:37:37.962Z,11.30
2023-02-27T10:40:08.380Z,10.90
2023-02-27T10:42:41.686Z,11.60
2023-02-27T10:45:15.992Z,11.10
2023-02-27T10:47:45.446Z,10.90
2023-02-27T10:50:28.197Z,10.90
2023-02-27T10:53:00.004Z,10.70
2023-02-27T10:55:31.493Z,10.00
2023-02-27T10:58:05.593Z,10.80
2023-02-27T11:00:44.771Z,10.70
2023-02-27T11:03:22.944Z,10.90
2023-02-27T11:05:57.634Z,10.80
2023-02-27T11:08:29.241Z,11.30
2023-02-27T11:11:02.167Z,11.30
2023-02-27T11:13:35.244Z,11.90
2023-02-27T11:16:16.896Z,12.20
2023-02-27T11:18:47.693Z,12.10
2023-02-27T11:21:25.868Z,12.00
2023-02-27T11:24:01.867Z,12.00
2023-02-27T11:26:34.574Z,11.90
2023-02-27T11:29:15.992Z,12.20
2023-02-27T11:31:53.153Z,11.70
2023-02-27T11:34:26.434Z,12.00
2023-02-27T11:37:00.533Z,12.30
2023-02-27T11:39:38.336Z,12.60
2023-02-27T11:42:19.308Z,12.80
2023-02-27T11:44:57.641Z,11.70
2023-02-27T11:47:33.376Z,12.50
2023-02-27T11:50:40.870Z,12.40
2023-02-27T11:53:31.737Z,11.80
2023-02-27T11:56:04.682Z,12.00
2023-02-27T11:58:43.858Z,11.90
2023-02-27T12:01:26.711Z,11.50
2023-02-27T12:04:03.669Z,11.20
2023-02-27T12:06:48.258Z,10.90
2023-02-27T12:09:40.813Z,12.00
2023-02-27T12:12:22.635Z,9.70
2023-02-27T12:15:03.642Z,11.50
2023-02-27T12:17:40.966Z,10.80
2023-02-27T12:20:29.506Z,12.00
2023-02-27T12:22:58.122Z,10.10
2023-02-27T12:25:40.697Z,10.70
2023-02-27T12:28:26.690Z,10.60
2023-02-27T12:31:13.059Z,11.80
2023-02-27T12:33:50.809Z,11.60
2023-02-27T12:36:19.095Z,10.50
2023-02-27T12:38:47.586Z,11.80
2023-02-27T12:41:47.985Z,11.80
2023-02-27T12:44:41.927Z,11.40
2023-02-27T12:47:26.659Z,12.40
2023-02-27T12:50:04.088Z,12.80
2023-02-27T12:52:46.985Z,12.60
2023-02-27T12:55:20.922Z,12.10
2023-02-27T12:58:23.585Z,12.70
2023-02-27T13:01:00.829Z,13.70
2023-02-27T13:03:39.277Z,13.90
2023-02-27T13:06:23.825Z,13.70
2023-02-27T13:09:09.516Z,14.40
2023-02-27T13:11:55.826Z,14.30
2023-02-27T13:14:42.823Z,14.00
2023-02-27T13:17:21.823Z,14.50
2023-02-27T13:19:56.061Z,14.50
2023-02-27T13:22:37.738Z,14.80
2023-02-27T13:25:14.457Z,15.70
2023-02-27T13:27:48.716Z,14.70
2023-02-27T13:30:27.447Z,14.40
2023-02-27T13:33:08.963Z,14.30
2023-02-27T13:35:53.303Z,14.50
2023-02-27T13:38:45.091Z,15.00
2023-02-27T13:41:38.251Z,16.00
2023-02-27T13:44:51.989Z,15.10
2023-02-27T13:47:50.000Z,15.30
2023-02-27T13:50:51.520Z,14.60
2023-02-27T13:53:24.421Z,15.20
2023-02-27T13:56:18.935Z,14.70
2023-02-27T13:58:47.523Z,15.00
2023-02-27T14:01:22.598Z,14.50
2023-02-27T14:04:02.965Z,14.80
2023-02-27T14:06:31.951Z,15.30
2023-02-27T14:09:14.441Z,14.10
2023-02-27T14:11:56.184Z,14.40
2023-02-27T14:14:46.185Z,14.40
2023-02-27T14:17:35.812Z,14.80
2023-02-27T14:20:06.621Z,15.00
2023-02-27T14:23:18.157Z,15.40
2023-02-27T14:25:51.495Z,15.80
2023-02-27T14:28:31.681Z,14.90
2023-02-27T14:31:03.951Z,14.30
2023-02-27T14:33:42.710Z,13.90
2023-02-27T14:36:19.913Z,14.10
2023-02-27T14:38:48.809Z,14.60
2023-02-27T14:41:35.871Z,14.70
2023-02-27T14:44:05.872Z,15.10
2023-02-27T14:46:39.254Z,14.50
2023-02-27T14:49:19.971Z,14.90
2023-02-27T14:51:49.217Z,14.40
2023-02-27T14:54:21.334Z,15.40
2023-02-27T14:57:00.357Z,15.40
2023-02-27T14:59:33.936Z,14.80
2023-02-27T15:02:04.635Z,14.60
2023-02-27T15:04:34.454Z,15.90
2023-02-27T15:07:04.123Z,15.60
2023-02-27T15:09:40.518Z,15.20
2023-02-27T15:12:10.757Z,14.90
2023-02-27T15:14:41.498Z,14.70
2023-02-27T15:17:18.213Z,15.80
2023-02-27T15:19:52.096Z,14.10
2023-02-27T15:22:37.905Z,13.50
2023-02-27T15:25:27.113Z,14.90
2023-02-27T15:28:06.398Z,15.70
2023-02-27T15:30:36.166Z,16.50
2023-02-27T15:33:04.483Z,16.80
2023-02-27T15:35:38.210Z,15.80
2023-02-27T15:38:07.555Z,15.30
2023-02-27T15:40:36.214Z,14.70
2023-02-27T15:43:05.642Z,14.90
2023-02-27T15:45:37.594Z,14.20
2023-02-27T15:48:07.119Z,14.50
2023-02-27T15:50:39.563Z,14.40
2023-02-27T15:53:14.848Z,15.20
2023-02-27T15:55:48.029Z,14.70
2023-02-27T15:58:25.612Z,15.40
2023-02-27T16:01:01.827Z,16.40
2023-02-27T16:03:37.402Z,17.10
2023-02-27T16:06:13.059Z,17.80
2023-02-27T16:08:47.795Z,17.80
2023-02-27T16:11:24.469Z,18.30
2023-02-27T16:13:54.880Z,17.20
2023-02-27T16:16:35.607Z,17.30
2023-02-27T16:19:26.256Z,17.30
2023-02-27T16:22:14.836Z,17.10
2023-02-27T16:24:44.026Z,17.40
2023-02-27T16:27:23.616Z,17.30
2023-02-27T16:29:53.805Z,18.00
2023-02-27T16:32:30.872Z,17.50
2023-02-27T16:35:05.887Z,17.70
2023-02-27T16:37:38.859Z,18.00
2023-02-27T16:40:16.196Z,18.40
2023-02-27T16:42:47.267Z,18.20
2023-02-27T16:45:18.814Z,18.40
2023-02-27T16:47:51.683Z,17.90
2023-02-27T16:50:25.096Z,17.40
2023-02-27T16:52:53.460Z,17.80
2023-02-27T16:55:22.364Z,16.90
2023-02-27T16:57:50.760Z,17.60
2023-02-27T17:00:22.688Z,17.60
2023-02-27T17:02:52.971Z,18.00
2023-02-27T17:05:21.268Z,18.70
2023-02-27T17:07:49.750Z,18.80
2023-02-27T17:10:22.057Z,19.30
2023-02-27T17:12:50.299Z,19.20
2023-02-27T17:15:19.119Z,19.50
2023-02-27T17:17:47.568Z,19.60
2023-02-27T17:20:19.124Z,19.60
2023-02-27T17:22:47.429Z,20.20
2023-02-27T17:25:18.183Z,19.80
2023-02-27T17:27:46.706Z,19.70
2023-02-27T17:30:15.987Z,20.00
2023-02-27T17:32:44.418Z,20.10
2023-02-27T17:35:13.206Z,19.90
2023-02-27T17:37:42.930Z,20.30
2023-02-27T17:40:13.755Z,19.80
2023-02-27T17:42:42.165Z,19.10
2023-02-27T17:45:12.421Z,19.10
2023-02-27T17:47:40.938Z,19.20
2023-02-27T17:50:10.324Z,19.30
2023-02-27T17:52:38.857Z,19.50
2023-02-27T17:55:10.436Z,19.90
2023-02-27T17:57:40.925Z,19.80
2023-02-27T18:00:15.188Z,20.00
2023-02-27T18:02:45.568Z,20.10
2023-02-27T18:05:13.775Z,20.20
2023-02-27T18:07:42.426Z,20.30
2023-02-27T18:10:14.322Z,20.60
2023-02-27T18:12:43.054Z,21.00
2023-02-27T18:15:12.168Z,21.30
2023-02-27T18:17:40.400Z,21.70
2023-02-27T18:20:11.426Z,21.80
2023-02-27T18:22:39.572Z,21.70
2023-02-27T18:25:09.327Z,22.00
2023-02-27T18:27:38.980Z,22.20
2023-02-27T18:30:08.857Z,22.20
2023-02-27T18:32:36.972Z,22.10
2023-02-27T18:35:10.502Z,22.20
2023-02-27T18:37:38.751Z,21.70
2023-02-27T18:40:11.958Z,21.60
2023-02-27T18:42:41.849Z,21.40
2023-02-27T18:45:12.314Z,21.00
2023-02-27T18:47:40.738Z,21.20
2023-02-27T18:50:12.381Z,21.30
2023-02-27T18:52:40.670Z,21.90
2023-02-27T18:55:10.911Z,22.10
2023-02-27T18:57:39.051Z,21.90
2023-02-27T19:00:10.730Z,21.90
2023-02-27T19:02:41.747Z,21.60
2023-02-27T19:05:14.420Z,21.70
2023-02-27T19:07:43.420Z,22.30
2023-02-27T19:10:13.221Z,23.30
2023-02-27T19:12:42.430Z,23.40
2023-02-27T19:15:13.230Z,23.20
2023-02-27T19:17:44.060Z,22.90
2023-02-27T19:20:16.526Z,22.50
2023-02-27T19:22:45.340Z,22.00
2023-02-27T19:25:13.474Z,21.40
2023-02-27T19:27:41.645Z,21.00
2023-02-27T19:30:13.307Z,20.60
2023-02-27T19:32:41.498Z,20.50
2023-02-27T19:35:14.238Z,19.90
2023-02-27T19:37:42.610Z,19.80
2023-02-27T19:40:14.037Z,19.40
2023-02-27T19:42:44.616Z,19.20
2023-02-27T19:45:14.265Z,18.70
2023-02-27T19:47:42.637Z,18.20
2023-02-27T19:50:12.770Z,18.40
2023-02-27T19:52:40.927Z,18.50
2023-02-27T19:55:10.160Z,18.40
2023-02-27T19:57:38.599Z,18.10
2023-02-27T20:00:09.398Z,18.20
2023-02-27T20:02:40.600Z,18.40
2023-02-27T20:05:12.086Z,18.60
2023-02-27T20:07:40.427Z,18.40
2023-02-27T20:10:09.363Z,18.20
2023-02-27T20:12:37.540Z,18.60
2023-02-27T20:15:10.883Z,18.90
2023-02-27T20:17:42.263Z,19.10
2023-02-27T20:20:12.434Z,19.40
2023-02-27T20:22:44.534Z,19.50
2023-02-27T20:25:13.763Z,19.20
2023-02-27T20:27:41.819Z,19.10
2023-02-27T20:30:12.147Z,19.10
2023-02-27T20:32:41.674Z,18.90
2023-02-27T20:35:12.015Z,19.20
2023-02-27T20:37:40.241Z,18.50
2023-02-27T20:40:11.072Z,18.40
2023-02-27T20:42:39.093Z,17.40
2023-02-27T20:45:08.946Z,17.80
2023-02-27T20:47:36.978Z,17.90
2023-02-27T20:50:07.653Z,18.20
2023-02-27T20:52:36.133Z,18.70
2023-02-27T20:55:04.413Z,19.60
2023-02-27T20:57:32.698Z,19.30
2023-02-27T21:00:00.778Z,19.30
2023-02-27T21:02:29.139Z,20.00
2023-02-27T21:04:58.250Z,18.90
2023-02-27T21:07:27.761Z,18.60
2023-02-27T21:09:55.795Z,18.50
2023-02-27T21:12:23.852Z,18.40
2023-02-27T21:14:51.904Z,16.70
2023-02-27T21:17:20.094Z,16.60
2023-02-27T21:19:48.200Z,16.50
2023-02-27T21:22:17.260Z,16.70
2023-02-27T21:24:49.990Z,17.20
2023-02-27T21:27:20.677Z,17.60
2023-02-27T21:29:49.840Z,17.50
2023-02-27T21:32:18.737Z,17.90
2023-02-27T21:34:46.853Z,18.20
2023-02-27T21:37:14.939Z,18.50
2023-02-27T21:39:45.321Z,18.00
2023-02-27T21:42:14.745Z,18.10
2023-02-27T21:44:43.733Z,17.80
2023-02-27T21:47:11.883Z,17.90
2023-02-27T21:49:40.042Z,18.60
2023-02-27T21:52:08.181Z,19.20
2023-02-27T21:54:38.728Z,19.40
2023-02-27T21:57:07.161Z,19.10
2023-02-27T21:59:36.667Z,19.50
2023-02-27T22:02:05.865Z,19.70
2023-02-27T22:04:34.114Z,19.80
2023-02-27T22:07:02.497Z,20.40
2023-02-27T22:09:30.672Z,20.90
2023-02-27T22:11:58.818Z,21.10
2023-02-27T22:14:27.137Z,21.50
2023-02-27T22:16:56.820Z,22.20
2023-02-27T22:19:25.076Z,22.90
2023-02-27T22:21:53.276Z,23.20
2023-02-27T22:24:21.640Z,23.70
2023-02-27T22:26:50.556Z,24.30
2023-02-27T22:29:18.970Z,24.80
2023-02-27T22:31:47.428Z,24.90
2023-02-27T22:34:19.367Z,25.20
2023-02-27T22:36:52.557Z,25.70
2023-02-27T22:39:21.748Z,25.60
2023-02-27T22:41:50.222Z,25.60
2023-02-27T22:44:18.906Z,25.50
2023-02-27T22:46:50.181Z,25.40
2023-02-27T22:49:23.380Z,25.10
2023-02-27T22:51:53.323Z,25.50
2023-02-27T22:54:23.708Z,26.10
2023-02-27T22:56:56.999Z,26.70
2023-02-27T22:59:27.396Z,27.40
2023-02-27T23:02:00.609Z,27.70
2023-02-27T23:04:39.424Z,28.00
2023-02-27T23:07:08.633Z,28.30
2023-02-27T23:09:37.516Z,28.60
2023-02-27T23:12:06.969Z,29.00
2023-02-27T23:14:36.622Z,29.40
2023-02-27T23:17:12.263Z,29.90
2023-02-27T23:19:42.470Z,30.60
2023-02-27T23:22:17.157Z,31.40
2023-02-27T23:24:45.704Z,31.50
2023-02-27T23:27:25.516Z,31.50
2023-02-27T23:29:55.425Z,31.30
2023-02-27T23:32:23.917Z,31.50
2023-02-27T23:34:57.768Z,31.90
2023-02-27T23:37:26.114Z,32.20
2023-02-27T23:39:55.637Z,32.00
2023-02-27T23:42:23.987Z,32.00
2023-02-27T23:44:52.615Z,32.20
2023-02-27T23:47:38.711Z,32.50
2023-02-27T23:50:13.769Z,32.90
2023-02-27T23:52:42.069Z,33.40
2023-02-27T23:55:12.373Z,33.80
2023-02-27T23:57:41.913Z,34.80
